createdAt,value
2018-10-12T00:02:07.180Z,18.93
2018-10-12T00:04:35.739Z,15.53
2018-10-12T00:07:06.099Z,16.60
2018-10-12T00:09:37.234Z,14.57
2018-10-12T00:12:06.792Z,16.83
2018-10-12T00:14:36.180Z,14.83
2018-10-12T00:17:05.009Z,16.50
2018-10-12T00:19:36.673Z,19.27
2018-10-12T00:22:04.817Z,16.67
2018-10-12T00:24:33.888Z,19.90
2018-10-12T00:27:03.045Z,17.67
2018-10-12T00:29:32.792Z,18.07
2018-10-12T00:32:01.759Z,17.20
2018-10-12T00:34:29.971Z,14.83
2018-10-12T00:36:58.434Z,19.17
2018-10-12T00:39:27.353Z,17.43
2018-10-12T00:41:55.692Z,14.13
2018-10-12T00:44:23.824Z,17.20
2018-10-12T00:46:52.065Z,16.30
2018-10-12T00:49:22.147Z,15.40
2018-10-12T00:51:51.216Z,15.63
2018-10-12T00:54:20.619Z,14.73
2018-10-12T00:56:50.153Z,16.13
2018-10-12T00:59:19.113Z,17.70
2018-10-12T01:01:48.288Z,16.77
2018-10-12T01:04:17.727Z,17.50
2018-10-12T01:06:47.240Z,14.53
2018-10-12T01:09:15.648Z,17.40
2018-10-12T01:11:44.718Z,16.27
2018-10-12T01:14:13.438Z,15.70
2018-10-12T01:16:41.876Z,15.07
2018-10-12T01:19:12.216Z,19.87
2018-10-12T01:21:41.354Z,15.97
2018-10-12T01:24:09.472Z,16.90
2018-10-12T01:26:39.294Z,18.73
2018-10-12T01:29:08.164Z,17.80
2018-10-12T01:31:37.394Z,18.30
2018-10-12T01:34:06.891Z,18.13
2018-10-12T01:36:37.327Z,14.60
2018-10-12T01:39:07.024Z,16.37
2018-10-12T01:41:38.245Z,15.57
2018-10-12T01:44:06.520Z,15.43
2018-10-12T01:46:38.173Z,14.83
2018-10-12T01:49:07.075Z,14.67
2018-10-12T01:51:36.395Z,16.70
2018-10-12T01:54:05.146Z,14.93
2018-10-12T01:56:33.184Z,15.70
2018-10-12T01:59:02.552Z,15.30
2018-10-12T02:01:31.506Z,15.53
2018-10-12T02:03:59.532Z,15.17
2018-10-12T02:06:28.169Z,16.13
2018-10-12T02:08:57.019Z,16.83
2018-10-12T02:11:27.908Z,19.90
2018-10-12T02:13:57.481Z,18.63
2018-10-12T02:16:26.744Z,17.13
2018-10-12T02:18:55.434Z,18.67
2018-10-12T02:21:23.864Z,17.20
2018-10-12T02:23:52.764Z,18.70
2018-10-12T02:26:21.011Z,16.70
2018-10-12T02:28:49.278Z,17.30
2018-10-12T02:31:17.324Z,17.53
2018-10-12T02:33:45.437Z,18.00
2018-10-12T02:36:16.609Z,22.97
2018-10-12T02:38:46.349Z,21.83
2018-10-12T02:41:15.651Z,17.27
2018-10-12T02:43:44.701Z,16.60
2018-10-12T02:48:43.561Z,15.97
2018-10-12T02:51:12.111Z,18.60
2018-10-12T02:53:43.737Z,21.93
2018-10-12T02:56:18.653Z,16.93
2018-10-12T02:58:47.922Z,19.87
2018-10-12T03:01:20.556Z,18.07
2018-10-12T03:03:50.528Z,18.07
2018-10-12T03:06:20.530Z,20.10
2018-10-12T03:08:51.472Z,18.77
2018-10-12T03:11:20.659Z,19.50
2018-10-12T03:13:50.201Z,16.93
2018-10-12T03:16:21.267Z,19.37
2018-10-12T03:18:52.818Z,19.27
2018-10-12T03:21:31.413Z,17.73
2018-10-12T03:24:01.183Z,17.13
2018-10-12T03:26:31.338Z,18.40
2018-10-12T03:29:02.646Z,18.53
2018-10-12T03:31:31.526Z,21.23
2018-10-12T03:34:04.711Z,19.13
2018-10-12T03:36:34.692Z,19.80
2018-10-12T03:39:07.830Z,22.20
2018-10-12T03:41:48.715Z,22.70
2018-10-12T03:44:34.599Z,18.97
2018-10-12T03:47:04.443Z,22.70
2018-10-12T03:49:33.458Z,21.03
2018-10-12T03:52:05.678Z,17.83
2018-10-12T03:54:33.756Z,22.63
2018-10-12T03:57:02.191Z,28.13
2018-10-12T03:59:31.433Z,18.93
2018-10-12T04:01:59.601Z,19.23
2018-10-12T04:04:28.418Z,19.63
2018-10-12T04:06:58.350Z,19.57
2018-10-12T04:09:28.308Z,23.27
2018-10-12T04:11:57.917Z,20.33
2018-10-12T04:14:27.063Z,18.63
2018-10-12T04:16:58.557Z,22.47
2018-10-12T04:19:27.466Z,24.37
2018-10-12T04:21:55.694Z,22.53
2018-10-12T04:24:23.765Z,20.03
2018-10-12T04:26:52.430Z,21.27
2018-10-12T04:29:21.149Z,20.43
2018-10-12T04:31:49.259Z,22.20
2018-10-12T04:34:18.813Z,24.50
2018-10-12T04:36:47.555Z,20.43
2018-10-12T04:39:26.528Z,21.53
2018-10-12T04:41:56.730Z,20.40
2018-10-12T04:44:25.453Z,21.43
2018-10-12T04:46:54.115Z,34.33
2018-10-12T04:53:04.468Z,23.43
2018-10-12T04:55:32.904Z,19.70
2018-10-12T04:58:02.003Z,18.03
2018-10-12T05:00:32.184Z,18.60
2018-10-12T05:03:02.142Z,18.67
2018-10-12T05:05:30.315Z,19.77
2018-10-12T05:07:59.146Z,24.07
2018-10-12T05:10:27.791Z,20.93
2018-10-12T05:13:22.036Z,19.87
2018-10-12T05:18:49.316Z,24.20
2018-10-12T05:21:20.732Z,25.87
2018-10-12T05:23:49.029Z,33.23
2018-10-12T05:26:18.104Z,27.03
2018-10-12T05:28:47.375Z,29.93
2018-10-12T05:31:18.180Z,24.80
2018-10-12T05:33:46.207Z,22.03
2018-10-12T05:36:15.753Z,24.17
2018-10-12T05:38:45.653Z,20.10
2018-10-12T05:41:25.776Z,22.50
2018-10-12T05:43:55.038Z,24.77
2018-10-12T05:46:23.331Z,23.63
2018-10-12T05:49:14.678Z,19.93
2018-10-12T05:52:06.538Z,19.60
2018-10-12T05:54:56.872Z,18.50
2018-10-12T05:58:01.423Z,25.83
2018-10-12T06:01:09.200Z,25.47
2018-10-12T06:03:43.009Z,20.67
2018-10-12T06:06:26.800Z,21.43
2018-10-12T06:09:29.618Z,23.47
2018-10-12T06:14:45.958Z,22.70
2018-10-12T06:17:18.618Z,20.70
2018-10-12T06:19:48.775Z,26.97
2018-10-12T06:22:19.739Z,27.87
2018-10-12T06:24:48.584Z,25.63
2018-10-12T06:27:25.410Z,44.87
2018-10-12T06:30:01.292Z,37.90
2018-10-12T06:32:37.802Z,59.03
2018-10-12T06:35:26.430Z,49.40
2018-10-12T06:38:00.339Z,37.87
2018-10-12T06:40:31.560Z,25.07
2018-10-12T06:43:13.838Z,27.37
2018-10-12T06:46:14.347Z,25.43
2018-10-12T06:48:49.252Z,29.43
2018-10-12T06:51:24.676Z,26.53
2018-10-12T06:54:21.445Z,24.97
2018-10-12T06:57:07.937Z,26.60
2018-10-12T06:59:46.364Z,30.43
2018-10-12T07:02:20.331Z,25.30
2018-10-12T07:04:52.670Z,23.27
2018-10-12T07:07:26.485Z,25.83
2018-10-12T07:10:00.232Z,28.30
2018-10-12T07:12:40.088Z,20.17
2018-10-12T07:15:32.531Z,23.33
2018-10-12T07:18:28.626Z,21.37
2018-10-12T07:21:00.649Z,22.43
2018-10-12T07:26:54.449Z,18.70
2018-10-12T07:29:27.475Z,25.23
2018-10-12T07:31:55.679Z,21.90
2018-10-12T07:34:27.214Z,27.53
2018-10-12T07:40:12.314Z,22.17
2018-10-12T07:42:41.127Z,14.20
2018-10-12T07:45:17.077Z,16.07
2018-10-12T07:48:00.245Z,16.53
2018-10-12T07:50:36.023Z,17.70
2018-10-12T07:53:06.008Z,16.00
2018-10-12T07:55:37.626Z,21.50
2018-10-12T07:58:56.313Z,21.93
2018-10-12T08:04:45.196Z,20.03
2018-10-12T08:07:22.364Z,19.47
2018-10-12T08:09:55.549Z,20.20
2018-10-12T08:12:33.783Z,22.93
2018-10-12T08:15:11.535Z,16.57
2018-10-12T08:17:43.805Z,18.90
2018-10-12T08:20:16.251Z,20.53
2018-10-12T08:22:50.594Z,15.63
2018-10-12T08:25:20.314Z,22.47
2018-10-12T08:28:10.794Z,17.13
2018-10-12T08:30:48.318Z,17.80
2018-10-12T08:33:18.055Z,14.70
2018-10-12T08:36:25.556Z,14.80
2018-10-12T08:38:58.800Z,12.03
2018-10-12T08:41:31.162Z,13.33
2018-10-12T08:44:01.073Z,11.40
2018-10-12T08:46:31.902Z,14.00
2018-10-12T08:49:11.783Z,12.17
2018-10-12T08:52:01.004Z,14.87
2018-10-12T08:54:30.270Z,15.03
2018-10-12T08:57:02.600Z,13.57
2018-10-12T08:59:32.859Z,17.50
2018-10-12T09:08:53.966Z,11.33
2018-10-12T09:11:24.566Z,9.73
2018-10-12T09:14:24.641Z,10.40
2018-10-12T09:17:00.397Z,10.73
2018-10-12T09:30:20.947Z,9.57
2018-10-12T09:33:26.275Z,11.73
2018-10-12T09:36:08.783Z,7.97
2018-10-12T09:39:03.093Z,11.20
2018-10-12T09:41:38.164Z,10.83
2018-10-12T09:44:37.162Z,8.77
2018-10-12T09:47:09.350Z,7.70
2018-10-12T09:50:02.193Z,8.90
2018-10-12T09:52:42.529Z,7.77
2018-10-12T09:55:45.099Z,9.07
2018-10-12T09:59:00.521Z,9.67
2018-10-12T10:02:15.194Z,6.47
2018-10-12T10:08:20.627Z,10.37
2018-10-12T10:11:10.625Z,8.10
2018-10-12T10:14:22.943Z,7.47
2018-10-12T10:16:58.554Z,8.13
2018-10-12T10:19:33.368Z,7.67
2018-10-12T10:22:05.487Z,11.20
2018-10-12T10:25:10.733Z,10.50
2018-10-12T10:31:03.419Z,7.73
2018-10-12T10:33:34.065Z,12.70
2018-10-12T10:42:19.016Z,11.83
2018-10-12T10:44:48.081Z,7.83
2018-10-12T10:47:31.305Z,8.70
2018-10-12T10:50:00.994Z,8.73
2018-10-12T10:52:31.751Z,5.90
2018-10-12T10:55:18.802Z,6.87
2018-10-12T10:57:53.189Z,7.50
2018-10-12T11:00:23.338Z,6.60
2018-10-12T11:02:53.551Z,8.20
2018-10-12T11:06:02.479Z,5.90
2018-10-12T11:08:48.356Z,5.20
2018-10-12T11:11:33.081Z,10.80
2018-10-12T11:15:08.540Z,6.30
2018-10-12T11:17:43.562Z,7.23
2018-10-12T11:20:40.143Z,6.07
2018-10-12T11:23:48.199Z,8.33
2018-10-12T11:26:17.370Z,6.77
2018-10-12T11:28:46.964Z,7.90
2018-10-12T11:31:22.774Z,5.60
2018-10-12T11:34:24.276Z,4.20
2018-10-12T11:37:13.647Z,8.50
2018-10-12T11:39:47.444Z,9.07
2018-10-12T11:42:24.601Z,4.70
2018-10-12T11:44:56.840Z,9.67
2018-10-12T11:54:46.649Z,6.97
2018-10-12T11:57:17.237Z,8.50
2018-10-12T11:59:46.281Z,6.80
2018-10-12T12:02:15.558Z,3.83
2018-10-12T12:04:44.921Z,7.83
2018-10-12T12:07:14.931Z,5.27
2018-10-12T12:09:45.252Z,6.87
2018-10-12T12:12:14.803Z,6.03
2018-10-12T12:15:16.499Z,9.03
2018-10-12T12:18:12.162Z,6.20
2018-10-12T12:20:55.480Z,4.63
2018-10-12T12:23:42.298Z,6.83
2018-10-12T12:28:59.582Z,7.40
2018-10-12T12:35:21.703Z,8.27
2018-10-12T12:38:00.180Z,17.87
2018-10-12T12:40:30.502Z,7.07
2018-10-12T12:43:02.051Z,6.33
2018-10-12T12:45:36.195Z,9.93
2018-10-12T12:48:05.461Z,7.23
2018-10-12T12:50:33.536Z,5.30
2018-10-12T12:53:05.791Z,4.13
2018-10-12T12:55:36.340Z,7.13
2018-10-12T12:58:25.782Z,8.07
2018-10-12T13:01:00.608Z,8.50
2018-10-12T13:03:29.146Z,5.90
2018-10-12T13:05:58.209Z,6.43
2018-10-12T13:08:28.140Z,7.73
2018-10-12T13:10:58.338Z,5.33
2018-10-12T13:22:34.515Z,7.37
2018-10-12T13:25:18.841Z,5.47
2018-10-12T13:28:27.789Z,5.90
2018-10-12T13:31:13.593Z,6.80
2018-10-12T13:33:50.173Z,8.83
2018-10-12T13:36:25.326Z,7.27
2018-10-12T13:38:53.896Z,3.40
2018-10-12T13:41:26.606Z,5.17
2018-10-12T13:44:01.894Z,5.03
2018-10-12T13:46:58.670Z,6.60
2018-10-12T13:49:41.611Z,5.20
2018-10-12T13:59:03.369Z,4.80
2018-10-12T14:01:42.314Z,5.17
2018-10-12T14:04:13.215Z,5.10
2018-10-12T14:06:55.219Z,7.77
2018-10-12T14:15:57.333Z,6.97
2018-10-12T14:18:28.026Z,7.33
2018-10-12T14:24:02.430Z,7.70
2018-10-12T14:26:31.094Z,4.63
2018-10-12T14:29:01.443Z,4.73
2018-10-12T14:31:29.974Z,4.43
2018-10-12T14:34:04.917Z,4.43
2018-10-12T14:36:41.428Z,5.07
2018-10-12T14:39:51.409Z,5.47
2018-10-12T14:45:29.693Z,6.33
2018-10-12T14:47:59.523Z,6.33
2018-10-12T14:50:29.934Z,4.73
2018-10-12T14:53:01.720Z,5.47
2018-10-12T14:56:19.076Z,4.57
2018-10-12T14:58:53.139Z,4.17
2018-10-12T15:01:40.970Z,4.53
2018-10-12T15:04:28.448Z,4.00
2018-10-12T15:07:16.259Z,4.57
2018-10-12T15:09:45.337Z,5.90
2018-10-12T15:12:18.444Z,5.83
2018-10-12T15:14:58.395Z,3.93
2018-10-12T15:17:26.701Z,4.17
2018-10-12T15:19:56.107Z,5.13
2018-10-12T15:22:36.504Z,5.07
2018-10-12T15:25:14.539Z,4.20
2018-10-12T15:27:43.627Z,5.60
2018-10-12T15:33:50.802Z,6.90
2018-10-12T15:36:52.863Z,3.70
2018-10-12T15:39:32.697Z,4.90
2018-10-12T15:42:07.913Z,6.70
2018-10-12T15:44:40.165Z,7.90
2018-10-12T15:47:12.001Z,6.07
2018-10-12T15:50:29.169Z,3.97
2018-10-12T15:53:00.266Z,5.77
2018-10-12T15:55:29.815Z,5.03
2018-10-12T15:58:05.823Z,6.33
2018-10-12T16:04:15.798Z,6.07
2018-10-12T16:06:46.297Z,6.92
2018-10-12T16:09:49.464Z,7.97
2018-10-12T16:15:27.562Z,7.40
2018-10-12T16:18:03.081Z,7.70
2018-10-12T16:20:33.658Z,5.37
2018-10-12T16:23:02.147Z,6.77
2018-10-12T16:25:52.030Z,5.20
2018-10-12T16:28:22.312Z,6.03
2018-10-12T16:30:54.267Z,4.23
2018-10-12T16:34:01.048Z,7.53
2018-10-12T16:37:00.911Z,6.33
2018-10-12T16:39:38.035Z,7.53
2018-10-12T16:42:07.931Z,5.57
2018-10-12T16:44:37.596Z,8.60
2018-10-12T16:47:12.283Z,7.20
2018-10-12T16:49:45.077Z,6.07
2018-10-12T16:52:15.068Z,9.10
2018-10-12T16:54:57.127Z,7.37
2018-10-12T16:57:44.299Z,5.50
2018-10-12T17:00:19.093Z,7.97
2018-10-12T17:02:48.036Z,10.20
2018-10-12T17:05:18.965Z,6.97
2018-10-12T17:07:53.532Z,7.03
2018-10-12T17:10:25.349Z,7.60
2018-10-12T17:13:22.290Z,13.63
2018-10-12T17:15:55.208Z,12.80
2018-10-12T17:21:53.513Z,12.97
2018-10-12T17:24:27.188Z,7.93
2018-10-12T17:26:59.243Z,8.10
2018-10-12T17:29:36.634Z,9.70
2018-10-12T17:32:04.974Z,7.83
2018-10-12T17:34:35.049Z,7.50
2018-10-12T17:37:04.436Z,6.87
2018-10-12T17:39:34.575Z,6.10
2018-10-12T17:42:17.436Z,6.87
2018-10-12T17:44:46.647Z,10.40
2018-10-12T17:47:22.676Z,6.30
2018-10-12T17:52:53.549Z,35.43
2018-10-12T17:58:38.515Z,55.13
2018-10-12T18:01:06.661Z,55.03
2018-10-12T18:04:21.584Z,23.30
2018-10-12T18:06:50.983Z,10.97
2018-10-12T18:09:29.186Z,12.50
2018-10-12T18:12:45.147Z,12.40
2018-10-12T18:15:14.824Z,12.03
2018-10-12T18:21:19.728Z,14.37
2018-10-12T18:23:51.916Z,13.30
2018-10-12T18:26:39.190Z,10.10
2018-10-12T18:29:12.605Z,13.87
2018-10-12T18:31:45.150Z,13.83
2018-10-12T18:34:29.983Z,13.13
2018-10-12T18:37:09.304Z,12.07
2018-10-12T18:39:44.716Z,11.70
2018-10-12T18:42:22.465Z,15.50
2018-10-12T18:44:52.312Z,17.17
2018-10-12T18:47:22.215Z,12.67
2018-10-12T18:49:57.367Z,12.10
2018-10-12T18:52:31.102Z,11.40
2018-10-12T18:55:10.558Z,9.77
2018-10-12T18:57:42.920Z,11.37
2018-10-12T19:00:13.275Z,10.70
2018-10-12T19:02:54.668Z,16.43
2018-10-12T19:08:37.720Z,12.97
2018-10-12T19:11:08.439Z,11.90
2018-10-12T19:14:03.927Z,15.13
2018-10-12T19:16:42.355Z,13.17
2018-10-12T19:19:13.116Z,13.23
2018-10-12T19:22:08.672Z,15.20
2018-10-12T19:24:43.454Z,11.47
2018-10-12T19:27:13.508Z,12.67
2018-10-12T19:29:43.790Z,15.67
2018-10-12T19:32:15.342Z,11.90
2018-10-12T19:34:43.930Z,9.83
2018-10-12T19:37:25.594Z,11.53
2018-10-12T19:40:25.295Z,11.10
2018-10-12T19:43:24.829Z,10.90
2018-10-12T19:45:56.229Z,10.13
2018-10-12T19:48:27.268Z,22.77
2018-10-12T19:50:58.568Z,14.13
2018-10-12T19:54:06.249Z,18.57
2018-10-12T19:57:00.212Z,33.13
2018-10-12T19:59:55.668Z,34.53
2018-10-12T20:02:51.749Z,15.10
2018-10-12T20:05:23.229Z,14.47
2018-10-12T20:08:06.393Z,21.60
2018-10-12T20:10:35.744Z,19.77
2018-10-12T20:13:04.377Z,23.53
2018-10-12T20:15:34.049Z,20.33
2018-10-12T20:18:04.233Z,15.20
2018-10-12T20:23:56.829Z,10.80
2018-10-12T20:26:26.970Z,10.07
2018-10-12T20:28:56.329Z,13.13
2018-10-12T20:31:27.804Z,13.73
2018-10-12T20:33:59.417Z,12.03
2018-10-12T20:36:33.075Z,11.30
2018-10-12T20:42:14.700Z,11.80
2018-10-12T20:45:28.263Z,11.27
2018-10-12T20:48:47.081Z,12.90
2018-10-12T20:51:17.704Z,11.97
2018-10-12T20:54:10.411Z,11.80
2018-10-12T20:56:43.693Z,12.73
2018-10-12T20:59:15.423Z,12.73
2018-10-12T21:01:44.187Z,12.70
2018-10-12T21:04:13.400Z,12.37
2018-10-12T21:06:43.075Z,13.13
2018-10-12T21:09:13.439Z,10.97
2018-10-12T21:11:45.400Z,16.93
2018-10-12T21:14:14.506Z,15.13
2018-10-12T21:16:44.759Z,14.73
2018-10-12T21:19:13.643Z,13.43
2018-10-12T21:21:43.950Z,14.30
2018-10-12T21:24:24.300Z,14.40
2018-10-12T21:26:53.419Z,13.20
2018-10-12T21:29:21.840Z,16.00
2018-10-12T21:31:55.339Z,14.43
2018-10-12T21:34:25.780Z,13.97
2018-10-12T21:37:25.887Z,15.30
2018-10-12T21:39:54.407Z,14.70
2018-10-12T21:42:22.518Z,13.10
2018-10-12T21:44:53.690Z,10.10
2018-10-12T21:47:24.488Z,12.27
2018-10-12T21:49:54.570Z,14.17
2018-10-12T21:52:23.834Z,17.00
2018-10-12T21:57:46.776Z,13.90
2018-10-12T22:00:18.367Z,14.93
2018-10-12T22:03:13.945Z,13.43
2018-10-12T22:05:44.790Z,12.70
2018-10-12T22:09:22.078Z,16.37
2018-10-12T22:11:51.252Z,12.40
2018-10-12T22:14:24.271Z,15.93
2018-10-12T22:16:53.610Z,10.33
2018-10-12T22:19:26.499Z,12.67
2018-10-12T22:21:58.079Z,12.83
2018-10-12T22:24:26.665Z,9.70
2018-10-12T22:26:58.422Z,11.97
2018-10-12T22:29:50.261Z,11.13
2018-10-12T22:35:09.037Z,11.73
2018-10-12T22:37:38.499Z,13.53
2018-10-12T22:40:07.629Z,12.07
2018-10-12T22:42:37.556Z,11.13
2018-10-12T22:45:08.498Z,11.43
2018-10-12T22:47:36.717Z,12.73
2018-10-12T22:50:05.738Z,11.83
2018-10-12T22:52:34.507Z,10.30
2018-10-12T22:55:02.609Z,10.50
2018-10-12T22:57:32.534Z,15.77
2018-10-12T23:00:02.468Z,15.30
2018-10-12T23:02:34.166Z,13.43
2018-10-12T23:05:04.521Z,13.77
2018-10-12T23:07:34.626Z,11.60
2018-10-12T23:10:04.159Z,11.43
2018-10-12T23:12:32.455Z,17.43
2018-10-12T23:15:01.725Z,11.60
2018-10-12T23:17:39.163Z,12.77
2018-10-12T23:20:07.616Z,17.10
2018-10-12T23:22:38.183Z,12.97
2018-10-12T23:25:11.732Z,12.93
2018-10-12T23:27:40.557Z,15.53
2018-10-12T23:30:09.563Z,14.27
2018-10-12T23:32:38.364Z,11.83
2018-10-12T23:35:07.995Z,9.53
2018-10-12T23:37:40.437Z,10.47
2018-10-12T23:40:11.615Z,10.87
2018-10-12T23:42:42.091Z,11.30
2018-10-12T23:45:31.994Z,15.13
2018-10-12T23:48:11.027Z,12.97
2018-10-12T23:50:42.902Z,9.93
2018-10-12T23:53:17.535Z,9.33
2018-10-12T23:55:47.520Z,15.47
2018-10-12T23:58:17.210Z,10.93
